Hauptseite
METAR-TAF:

METAR-TAF

Flughäfen :

RAF Brize Norton

Brize Norton, England

Breite: 51-45N, Länge: 001-35W, Höhe: 88 m

Beobachtung

Neuester Wetterbericht von vor 46 Minuten, um 13:50 UTC
Wind 9 kt aus Nord/Nordwest
Temperatur 19°C
Luftfeuchtigkeit 43%
Luftdruck 1027 hPa
Sichtweite 10 km oder mehr
keine Wolken unter 1500 m und keine Kumulonimbus oder Gewitterwolken

METAR: EGVN 111350Z 33009KT CAVOK 19/06 Q1027 NOSIG RMK BLU BLU

Zeit: 15:36 (14:36 UTC)

Prognose

Neuester Wetterbericht von vor 3 Stunden und 39 Minuten, um 10:57 UTC
Gültige Prognose vom 11 um 12 UTC bis 12 um 12 UTC
Wind 8 kt aus Nord/Nordwest
Sichtweite 10 km oder mehr
keine Wolken unter 1500 m und keine Kumulonimbus oder Gewitterwolken

TAF: EGVN 111057Z 1112/1212 33008KT CAVOK

Wetterbeobachtungen und Prognosen von mehr als 4000 Flughäfen (METAR und TAF Bericht).

Die verfügbaren Stationen werden durch gelbe und rote Markierungen auf der Karte dargestellt.

Führen Sie die Maus auf sie, um den Namen der Station zu sehen.

Darauf klicken, um die Beobachtung von Wetterbeobachtungen und Prognosen zu sehen.

Um die Karte zu ändern : klicken Sie auf den grünen Tasten mit einem schwarzen Kreuz Zum Vergrößern, auf den grünen Button mit einem Gedankenstrich zu verkleinern, oder auf die grünen Pfeile für benachbarte Karten.


METAR-TAF: